Time;durP1;ratioP1;P1;durP2;ratioP2;P2;SDS_P1;SDS_P2;PMS_P1;PMS_P2;Temp;Humidity;BMP_temperature;BMP_pressure;BME280_temperature;BME280_humidity;BME280_pressure;Samples;Min_cycle;Max_cycle;Signal;HPM_P1;HPM_P2
2021/09/22 00:00:49;;;;;;;42.53;25.08;;;6.60;99.90;;;;;;6222697;23;20031;-90
2021/09/22 00:03:41;;;;;;;43.08;25.40;;;6.60;99.90;;;;;;6222835;23;20517;-91
2021/09/22 00:06:28;;;;;;;39.28;25.90;;;6.60;99.90;;;;;;6223274;23;20024;-92
2021/09/22 00:09:19;;;;;;;36.70;23.67;;;6.60;99.90;;;;;;6223469;23;20418;-92
2021/09/22 00:12:06;;;;;;;38.65;23.63;;;6.60;99.90;;;;;;6244665;23;20025;-90
2021/09/22 00:14:53;;;;;;;36.20;24.15;;;6.50;99.90;;;;;;6222092;23;20024;-91
2021/09/22 00:17:41;;;;;;;34.22;23.95;;;6.50;99.90;;;;;;6221193;23;20042;-91
2021/09/22 00:20:28;;;;;;;34.45;23.75;;;6.40;99.90;;;;;;6243749;23;20125;-91
2021/09/22 00:23:21;;;;;;;37.30;24.15;;;6.30;99.90;;;;;;6222663;23;20028;-92
2021/09/22 00:26:11;;;;;;;36.95;24.23;;;6.30;99.90;;;;;;6243580;23;20609;-93
2021/09/22 00:28:58;;;;;;;38.17;24.55;;;6.40;99.90;;;;;;6223161;23;20032;-90
2021/09/22 00:31:46;;;;;;;42.17;24.58;;;6.30;99.90;;;;;;6243314;23;20475;-90
2021/09/22 00:34:34;;;;;;;33.47;22.85;;;6.40;99.90;;;;;;6224145;23;20027;-90
2021/09/22 00:37:21;;;;;;;36.72;23.45;;;6.30;99.90;;;;;;6222542;23;20032;-91
2021/09/22 00:40:10;;;;;;;34.42;23.33;;;6.20;99.90;;;;;;6224127;23;20106;-91
2021/09/22 00:42:57;;;;;;;33.10;23.42;;;6.10;99.90;;;;;;6202176;23;20067;-90
2021/09/22 00:45:45;;;;;;;35.38;23.73;;;6.10;99.90;;;;;;6180311;23;20099;-91
2021/09/22 00:48:34;;;;;;;34.92;23.63;;;6.10;99.90;;;;;;6245405;23;20443;-91
2021/09/22 00:51:23;;;;;;;38.28;23.73;;;6.00;99.90;;;;;;6221216;23;20020;-91
2021/09/22 00:54:15;;;;;;;34.80;23.38;;;6.00;99.90;;;;;;6223978;23;20043;-91
2021/09/22 00:57:03;;;;;;;40.45;24.70;;;6.10;99.90;;;;;;6242154;22;20023;-90
2021/09/22 00:59:52;;;;;;;36.50;23.98;;;6.10;99.90;;;;;;6275851;22;20398;-92
2021/09/22 01:02:39;;;;;;;40.90;24.08;;;6.10;99.90;;;;;;6273624;22;20123;-91
2021/09/22 01:05:27;;;;;;;47.65;27.77;;;6.10;99.90;;;;;;6253201;22;20019;-90
2021/09/22 01:08:15;;;;;;;44.25;27.52;;;6.10;99.90;;;;;;6252179;22;20034;-90
2021/09/22 01:11:03;;;;;;;41.08;25.35;;;6.20;99.90;;;;;;6272442;22;20434;-90
2021/09/22 01:13:51;;;;;;;42.85;26.45;;;6.20;99.90;;;;;;6276444;22;20023;-89
2021/09/22 01:16:43;;;;;;;41.85;26.20;;;6.20;99.90;;;;;;6272170;22;20424;-90
2021/09/22 01:19:31;;;;;;;42.60;25.58;;;6.20;99.90;;;;;;6271601;22;20082;-90
2021/09/22 01:22:18;;;;;;;43.17;25.80;;;6.20;99.90;;;;;;6275617;22;20028;-90
2021/09/22 01:25:11;;;;;;;41.78;24.90;;;6.20;99.90;;;;;;6275013;22;20081;-92
2021/09/22 01:28:02;;;;;;;41.50;27.10;;;6.10;99.90;;;;;;6273170;22;20123;-89
2021/09/22 01:30:50;;;;;;;45.20;27.42;;;6.10;99.90;;;;;;6283515;22;20238;-89
2021/09/22 01:33:37;;;;;;;43.78;25.65;;;6.20;99.90;;;;;;6297687;22;20097;-90
2021/09/22 01:36:25;;;;;;;42.30;24.85;;;6.20;99.90;;;;;;6294319;22;20023;-91
2021/09/22 01:39:12;;;;;;;36.80;24.83;;;6.10;99.90;;;;;;6285624;22;20034;-89
2021/09/22 01:42:00;;;;;;;41.50;26.90;;;6.00;99.90;;;;;;6275505;22;20031;-91
2021/09/22 01:44:47;;;;;;;49.92;27.13;;;6.00;99.90;;;;;;6272890;22;20023;-90
2021/09/22 01:47:35;;;;;;;46.28;28.50;;;6.00;99.90;;;;;;6275895;22;20374;-92
2021/09/22 01:50:23;;;;;;;43.10;25.65;;;6.00;99.90;;;;;;6273876;22;20034;-90
2021/09/22 01:53:13;;;;;;;45.53;28.48;;;6.00;99.90;;;;;;6271888;22;20019;-92
2021/09/22 01:56:01;;;;;;;45.38;26.58;;;6.00;99.90;;;;;;6273565;22;20023;-90
2021/09/22 01:58:49;;;;;;;40.38;26.88;;;5.90;99.90;;;;;;6243360;23;20466;-92
2021/09/22 02:01:37;;;;;;;44.17;26.15;;;5.90;99.90;;;;;;6245493;22;20035;-90
2021/09/22 02:04:24;;;;;;;38.60;25.48;;;5.90;99.90;;;;;;6220029;23;20020;-89
2021/09/22 02:07:12;;;;;;;41.22;24.85;;;5.80;99.90;;;;;;6220018;23;20028;-91
2021/09/22 02:09:59;;;;;;;40.47;25.08;;;5.70;99.90;;;;;;6221897;23;20035;-93
2021/09/22 02:12:47;;;;;;;47.03;28.48;;;5.70;99.90;;;;;;6242959;23;20024;-91
2021/09/22 02:15:34;;;;;;;44.15;26.55;;;5.70;99.90;;;;;;6223673;23;20023;-89
2021/09/22 02:18:22;;;;;;;42.92;27.20;;;5.70;99.90;;;;;;6221893;23;20028;-90
2021/09/22 02:21:10;;;;;;;43.55;26.90;;;5.80;99.90;;;;;;6223745;23;20093;-91
2021/09/22 02:23:57;;;;;;;43.90;26.67;;;5.70;99.90;;;;;;6202870;23;20035;-92
2021/09/22 02:26:45;;;;;;;43.40;27.35;;;5.70;99.90;;;;;;6242906;23;20257;-91
2021/09/22 02:29:32;;;;;;;48.08;27.58;;;5.70;99.90;;;;;;6245662;23;20048;-85
2021/09/22 02:32:20;;;;;;;48.80;29.45;;;5.70;99.90;;;;;;6250093;23;20439;-84
2021/09/22 02:35:09;;;;;;;51.60;29.40;;;5.70;99.90;;;;;;6229601;23;20023;-84
2021/09/22 02:37:56;;;;;;;48.70;27.80;;;5.70;99.90;;;;;;6230432;23;20039;-85
2021/09/22 02:40:44;;;;;;;49.15;27.98;;;5.60;99.90;;;;;;6249649;23;20107;-85
2021/09/22 02:43:31;;;;;;;49.45;28.35;;;5.60;99.90;;;;;;6246812;23;20131;-88
2021/09/22 02:46:19;;;;;;;45.17;28.23;;;5.50;99.90;;;;;;6225204;23;20035;-86
2021/09/22 02:49:06;;;;;;;47.97;28.30;;;5.50;99.90;;;;;;6224431;23;20106;-84
2021/09/22 02:51:53;;;;;;;51.03;28.85;;;5.50;99.90;;;;;;6242992;23;20105;-85
2021/09/22 02:54:43;;;;;;;48.00;28.20;;;5.50;99.90;;;;;;6223324;23;20083;-87
2021/09/22 02:57:31;;;;;;;46.13;27.48;;;5.50;99.90;;;;;;6254706;22;20093;-84
2021/09/22 03:00:18;;;;;;;49.85;27.92;;;5.50;99.90;;;;;;6254380;22;20065;-86
2021/09/22 03:03:06;;;;;;;51.30;29.52;;;5.40;99.90;;;;;;6275874;22;20059;-84
2021/09/22 03:05:55;;;;;;;51.13;29.75;;;5.40;99.90;;;;;;6276213;22;20026;-85
2021/09/22 03:08:42;;;;;;;47.42;28.27;;;5.40;99.90;;;;;;6254938;22;20046;-85
2021/09/22 03:11:29;;;;;;;56.10;32.25;;;5.40;99.90;;;;;;6275445;22;20031;-85
2021/09/22 03:14:16;;;;;;;58.83;31.98;;;5.40;99.90;;;;;;6274682;22;20448;-86
2021/09/22 03:17:05;;;;;;;56.25;31.90;;;5.50;99.90;;;;;;6276245;22;20027;-85
2021/09/22 03:19:53;;;;;;;49.65;30.15;;;5.60;99.90;;;;;;6274278;22;20116;-84
2021/09/22 03:22:42;;;;;;;53.03;30.55;;;5.60;99.90;;;;;;6279163;22;20058;-85
2021/09/22 03:25:29;;;;;;;51.97;30.10;;;5.50;99.90;;;;;;6276381;22;20023;-85
2021/09/22 03:28:17;;;;;;;56.83;31.40;;;5.50;99.90;;;;;;6272717;22;20085;-85
2021/09/22 03:31:04;;;;;;;62.08;32.15;;;5.50;99.90;;;;;;6253725;22;20031;-86
2021/09/22 03:33:56;;;;;;;54.17;30.90;;;5.40;99.90;;;;;;6272569;22;20033;-84
2021/09/22 03:36:43;;;;;;;44.03;24.63;;;5.40;99.90;;;;;;6274628;22;20558;-85
2021/09/22 03:39:33;;;;;;;60.28;33.25;;;5.40;99.90;;;;;;6274891;22;20362;-85
2021/09/22 03:42:23;;;;;;;59.45;34.13;;;5.40;99.90;;;;;;6275617;22;20024;-85
2021/09/22 03:45:12;;;;;;;69.88;34.10;;;5.40;99.90;;;;;;6276377;22;20110;-86
2021/09/22 03:48:00;;;;;;;56.03;32.55;;;5.40;99.90;;;;;;6274474;22;20081;-86
2021/09/22 03:50:48;;;;;;;65.40;33.65;;;5.40;99.90;;;;;;6275321;22;20023;-85
2021/09/22 03:53:36;;;;;;;56.20;32.85;;;5.30;99.90;;;;;;6275676;22;20103;-85
2021/09/22 03:56:23;;;;;;;59.90;32.88;;;5.30;99.90;;;;;;6269110;22;20327;-85
2021/09/22 03:59:11;;;;;;;62.00;32.90;;;5.30;99.90;;;;;;6242959;23;20111;-85
2021/09/22 04:02:08;;;;;;;54.72;32.70;;;5.30;99.90;;;;;;6242361;22;20158;-86
2021/09/22 04:04:56;;;;;;;60.00;31.80;;;5.20;99.90;;;;;;6244564;23;20124;-85
2021/09/22 04:07:45;;;;;;;53.53;30.77;;;5.20;99.90;;;;;;6244926;23;20035;-85
2021/09/22 04:10:32;;;;;;;61.97;32.00;;;5.10;99.90;;;;;;6200868;23;20098;-85
2021/09/22 04:13:19;;;;;;;55.67;31.30;;;5.10;99.90;;;;;;6224042;23;20051;-85
2021/09/22 04:16:09;;;;;;;53.70;31.23;;;5.00;99.90;;;;;;6244986;23;20082;-85
2021/09/22 04:18:56;;;;;;;57.03;31.95;;;5.00;99.90;;;;;;6244851;23;20055;-85
2021/09/22 04:21:44;;;;;;;55.83;31.13;;;5.00;99.90;;;;;;6221440;23;20036;-85
2021/09/22 04:24:31;;;;;;;58.72;31.25;;;4.90;99.90;;;;;;6244831;23;20289;-86
2021/09/22 04:27:19;;;;;;;65.15;33.53;;;4.90;99.90;;;;;;6200174;23;20082;-86
2021/09/22 04:30:11;;;;;;;55.20;31.38;;;5.00;99.90;;;;;;6244350;23;20454;-85
2021/09/22 04:32:58;;;;;;;58.83;30.88;;;5.00;99.90;;;;;;6243277;23;20058;-90
2021/09/22 05:08:34;;;;;;;65.20;33.25;;;4.90;99.90;;;;;;6244780;23;20012;-90
2021/09/22 05:11:24;;;;;;;64.65;34.00;;;4.80;99.90;;;;;;6241960;23;20020;-84
2021/09/22 05:14:12;;;;;;;61.30;33.42;;;4.80;99.90;;;;;;6220624;23;20031;-83
2021/09/22 05:16:59;;;;;;;64.05;32.53;;;4.80;99.90;;;;;;6219149;23;20028;-82
2021/09/22 05:19:46;;;;;;;65.18;32.72;;;4.70;99.90;;;;;;6242580;23;20423;-84
2021/09/22 05:22:34;;;;;;;60.78;31.90;;;4.70;99.90;;;;;;6241406;23;20066;-84
2021/09/22 05:25:21;;;;;;;60.95;32.50;;;4.70;99.90;;;;;;6221181;23;20099;-83
2021/09/22 05:28:08;;;;;;;66.63;32.67;;;4.90;99.90;;;;;;6246644;23;20074;-89
2021/09/22 05:30:56;;;;;;;61.13;31.48;;;4.90;99.90;;;;;;6245188;23;20312;-92
2021/09/22 05:33:44;;;;;;;64.40;32.95;;;5.00;99.90;;;;;;6246341;23;20027;-88
2021/09/22 05:36:31;;;;;;;68.13;32.80;;;4.90;99.90;;;;;;6227171;23;20032;-92
2021/09/22 05:39:22;;;;;;;63.95;32.83;;;4.90;99.90;;;;;;6246282;23;20024;-89
2021/09/22 05:42:11;;;;;;;64.88;33.17;;;5.00;99.90;;;;;;6245183;23;20078;-91
2021/09/22 05:44:58;;;;;;;63.70;33.13;;;5.00;99.90;;;;;;6242551;23;20023;-86
2021/09/22 05:47:48;;;;;;;75.22;35.63;;;5.20;99.90;;;;;;6219592;23;20319;-90
2021/09/22 05:50:39;;;;;;;73.35;35.33;;;5.20;99.90;;;;;;6221931;23;20039;-90
2021/09/22 05:53:27;;;;;;;79.57;36.97;;;5.40;99.90;;;;;;6242946;22;20030;-88
2021/09/22 05:56:14;;;;;;;82.82;36.47;;;5.40;99.90;;;;;;6220919;23;20652;-87
2021/09/22 05:59:05;;;;;;;73.97;36.20;;;5.50;99.90;;;;;;6241099;23;20078;-87
2021/09/22 06:02:14;;;;;;;73.25;36.03;;;5.60;99.90;;;;;;6242428;23;20086;-86
2021/09/22 06:05:02;;;;;;;74.32;36.38;;;5.60;99.90;;;;;;6255650;23;20031;-86
2021/09/22 06:07:51;;;;;;;70.60;35.30;;;5.70;99.90;;;;;;6232713;23;20024;-86
2021/09/22 06:10:38;;;;;;;73.72;36.40;;;5.80;99.90;;;;;;6248609;23;20065;-86
2021/09/22 06:13:25;;;;;;;73.80;35.08;;;5.90;99.90;;;;;;6223296;23;20086;-88
2021/09/22 06:16:12;;;;;;;72.38;36.80;;;5.90;99.90;;;;;;6223027;23;20044;-90
2021/09/22 06:19:03;;;;;;;65.20;34.28;;;6.10;99.90;;;;;;6183137;23;20058;-86
2021/09/22 06:21:50;;;;;;;60.75;33.97;;;6.30;99.90;;;;;;6225310;23;20431;-88
2021/09/22 06:24:56;;;;;;;57.05;32.10;;;6.50;99.90;;;;;;6247469;23;20035;-89
2021/09/22 06:27:48;;;;;;;54.60;33.00;;;6.60;99.90;;;;;;6202536;23;20035;-89
2021/09/22 06:30:38;;;;;;;54.70;31.73;;;6.80;99.90;;;;;;6221482;23;20036;-86
2021/09/22 06:33:25;;;;;;;54.88;31.38;;;7.10;99.90;;;;;;6220686;23;20031;-90
2021/09/22 06:36:30;;;;;;;51.45;30.63;;;7.40;99.90;;;;;;6223118;23;20035;-87
2021/09/22 06:39:17;;;;;;;43.88;25.52;;;7.70;99.90;;;;;;6223733;23;20135;-93
2021/09/22 06:42:05;;;;;;;36.42;26.13;;;7.80;99.90;;;;;;6243723;23;20024;-89
2021/09/22 06:44:54;;;;;;;30.63;21.50;;;7.80;99.90;;;;;;6201631;23;20103;-89
2021/09/22 06:47:46;;;;;;;31.92;21.35;;;7.80;99.90;;;;;;6252345;22;20179;-91
2021/09/22 06:50:34;;;;;;;34.30;20.92;;;7.90;99.90;;;;;;6228583;23;20311;-89
2021/09/22 06:53:24;;;;;;;27.50;20.77;;;8.20;99.90;;;;;;6243748;22;20035;-89
2021/09/22 06:56:34;;;;;;;29.73;19.98;;;8.50;99.90;;;;;;6258912;22;20410;-91
2021/09/22 06:59:21;;;;;;;29.42;20.58;;;8.80;99.90;;;;;;6272570;22;20028;-87
2021/09/22 07:02:09;;;;;;;30.38;20.55;;;9.00;99.90;;;;;;6275947;22;20019;-85
2021/09/22 07:04:57;;;;;;;32.50;21.10;;;9.30;99.90;;;;;;6278848;22;20034;-90
2021/09/22 07:07:48;;;;;;;34.95;21.13;;;9.60;99.90;;;;;;6280599;22;20024;-89
2021/09/22 07:10:36;;;;;;;30.10;21.30;;;9.90;99.90;;;;;;6275506;22;20023;-88
2021/09/22 07:13:23;;;;;;;27.45;20.25;;;10.20;99.90;;;;;;6273612;22;20111;-90
2021/09/22 07:16:16;;;;;;;25.65;20.08;;;10.50;99.90;;;;;;6255525;22;20059;-89
2021/09/22 07:19:03;;;;;;;24.02;19.55;;;10.70;99.90;;;;;;6255886;22;20024;-86
2021/09/22 07:21:53;;;;;;;26.02;20.40;;;10.90;99.90;;;;;;6276087;22;20083;-87
2021/09/22 07:24:58;;;;;;;23.35;19.23;;;11.00;99.90;;;;;;6277703;22;20106;-86
2021/09/22 07:27:50;;;;;;;23.65;18.73;;;11.10;99.90;;;;;;6256107;22;20437;-91
2021/09/22 07:30:40;;;;;;;29.52;19.95;;;11.40;99.90;;;;;;6275173;22;20257;-89
2021/09/22 07:33:33;;;;;;;24.98;18.85;;;11.60;99.90;;;;;;6254097;22;20047;-86
2021/09/22 07:36:23;;;;;;;25.55;19.08;;;11.80;99.90;;;;;;6276059;22;20054;-89
2021/09/22 07:39:14;;;;;;;24.30;18.73;;;12.10;99.90;;;;;;6276123;22;20024;-87
2021/09/22 07:42:04;;;;;;;27.45;20.40;;;12.10;99.90;;;;;;6254666;22;20034;-89
2021/09/22 07:45:01;;;;;;;24.77;19.58;;;12.20;99.90;;;;;;6276709;22;20091;-90
2021/09/22 07:47:53;;;;;;;28.70;20.30;;;12.30;99.90;;;;;;6277361;22;20123;-90
2021/09/22 07:50:40;;;;;;;28.67;21.38;;;12.20;99.90;;;;;;6256741;22;20019;-88
2021/09/22 07:53:27;;;;;;;27.95;20.10;;;12.10;99.90;;;;;;6279432;22;20031;-89
2021/09/22 07:56:15;;;;;;;26.70;18.70;;;12.00;99.90;;;;;;6281832;22;20034;-90
2021/09/22 07:59:15;;;;;;;26.70;20.17;;;12.20;99.90;;;;;;6291268;22;20161;-88
2021/09/22 08:02:08;;;;;;;29.88;20.50;;;12.30;99.90;;;;;;6290374;22;20034;-88
2021/09/22 08:05:08;;;;;;;26.02;20.42;;;12.50;99.90;;;;;;6294613;22;20111;-88
2021/09/22 08:08:09;;;;;;;29.42;18.77;;;12.90;99.90;;;;;;6297962;22;20023;-89
2021/09/22 08:11:22;;;;;;;21.95;16.63;;;13.40;99.90;;;;;;6295377;22;20023;-91
2021/09/22 08:14:09;;;;;;;19.92;14.63;;;13.90;99.90;;;;;;6298545;22;20007;-89
2021/09/22 08:17:18;;;;;;;20.30;15.40;;;14.30;99.90;;;;;;6291735;22;20034;-87
2021/09/22 08:20:10;;;;;;;17.52;14.25;;;15.00;99.90;;;;;;6266971;22;20023;-90
2021/09/22 08:23:00;;;;;;;16.17;13.15;;;15.70;99.90;;;;;;6264283;22;20020;-89
2021/09/22 08:25:50;;;;;;;18.77;13.30;;;16.20;99.90;;;;;;6264289;22;20311;-90
2021/09/22 08:28:53;;;;;;;14.55;12.15;;;16.60;99.90;;;;;;6279847;22;20122;-90
2021/09/22 08:31:57;;;;;;;24.45;12.88;;;16.30;96.40;;;;;;6260882;22;20019;-89
2021/09/22 08:34:54;;;;;;;17.27;12.68;;;16.40;99.10;;;;;;6277045;22;20035;-89
2021/09/22 08:37:42;;;;;;;14.88;12.30;;;16.50;98.20;;;;;;6277607;22;20096;-92
2021/09/22 08:40:31;;;;;;;19.65;11.77;;;16.80;96.90;;;;;;6278125;22;20031;-88
2021/09/22 08:44:08;;;;;;;13.48;11.27;;;16.60;95.30;;;;;;6279112;22;20042;-89
2021/09/22 08:47:07;;;;;;;14.95;11.43;;;16.70;95.00;;;;;;6278030;22;20024;-89
2021/09/22 08:50:03;;;;;;;15.25;11.02;;;17.10;94.80;;;;;;6277385;22;20023;-90
2021/09/22 08:52:51;;;;;;;16.20;11.23;;;17.30;92.80;;;;;;6274974;22;20051;-88
2021/09/22 08:55:38;;;;;;;14.93;11.95;;;17.40;91.60;;;;;;6278195;22;20023;-87
2021/09/22 08:58:28;;;;;;;17.50;11.77;;;17.70;90.20;;;;;;6276908;22;20020;-88
2021/09/22 09:01:21;;;;;;;13.68;10.93;;;17.80;91.10;;;;;;6274180;22;20024;-89
2021/09/22 09:04:17;;;;;;;13.13;10.90;;;18.40;89.50;;;;;;6273009;22;20043;-88
2021/09/22 09:07:07;;;;;;;13.05;11.20;;;19.00;82.70;;;;;;6275761;22;20316;-87
2021/09/22 09:10:04;;;;;;;10.95;9.82;;;19.40;81.20;;;;;;6272509;22;20023;-88
2021/09/22 09:13:11;;;;;;;12.00;10.30;;;20.00;74.00;;;;;;6273856;22;20260;-86
2021/09/22 09:16:00;;;;;;;13.00;10.07;;;20.10;72.50;;;;;;6273600;22;20032;-86
2021/09/22 09:18:54;;;;;;;11.88;9.77;;;19.80;73.30;;;;;;6253294;22;20036;-88
2021/09/22 09:22:03;;;;;;;10.63;8.93;;;19.90;74.40;;;;;;6274709;22;20500;-86
2021/09/22 09:24:51;;;;;;;11.88;8.35;;;19.80;69.40;;;;;;6272401;22;20151;-88
2021/09/22 09:27:38;;;;;;;9.02;8.02;;;19.90;68.80;;;;;;6275711;22;20029;-89
2021/09/22 09:30:27;;;;;;;11.68;8.27;;;19.80;66.80;;;;;;6273648;22;20016;-85
2021/09/22 09:33:35;;;;;;;9.02;8.23;;;19.70;67.40;;;;;;6274955;22;20028;-88
2021/09/22 09:36:36;;;;;;;9.40;8.30;;;19.30;68.80;;;;;;6275434;22;20138;-87
2021/09/22 09:39:24;;;;;;;10.60;9.02;;;18.70;71.20;;;;;;6275702;22;20043;-86
2021/09/22 09:42:11;;;;;;;14.73;9.60;;;18.70;72.20;;;;;;6273675;22;20502;-86
2021/09/22 09:44:58;;;;;;;9.88;8.25;;;19.00;71.80;;;;;;6272458;22;20032;-87
2021/09/22 09:48:04;;;;;;;8.25;7.00;;;19.20;69.80;;;;;;6274144;22;20112;-87
2021/09/22 09:50:53;;;;;;;10.50;6.93;;;20.30;66.20;;;;;;6272446;22;20434;-88
2021/09/22 09:53:43;;;;;;;7.80;7.00;;;21.50;64.70;;;;;;6271184;22;20029;-86
2021/09/22 09:56:33;;;;;;;7.78;5.80;;;22.10;61.80;;;;;;6272601;22;20376;-89
2021/09/22 09:59:22;;;;;;;6.80;6.07;;;23.00;57.70;;;;;;6272623;22;20024;-86
2021/09/22 10:02:29;;;;;;;10.70;6.32;;;23.10;58.10;;;;;;6274371;22;20552;-86
2021/09/22 10:05:17;;;;;;;7.35;5.70;;;23.10;57.90;;;;;;6277558;22;20106;-90
2021/09/22 10:08:05;;;;;;;6.70;5.80;;;23.30;55.90;;;;;;6252548;22;20039;-88
2021/09/22 10:10:58;;;;;;;7.50;5.95;;;22.90;56.60;;;;;;6278458;22;20071;-88
2021/09/22 10:13:46;;;;;;;;;;;23.00;55.50;;;;;;6285643;22;20050;-91
2021/09/22 10:16:35;;;;;;;7.43;5.82;;;23.00;55.50;;;;;;6277364;22;19930;-89
2021/09/22 10:19:24;;;;;;;8.07;5.55;;;22.80;56.70;;;;;;6276784;22;20027;-89
2021/09/22 10:22:11;;;;;;;8.57;5.82;;;23.00;55.90;;;;;;6272168;22;20032;-90
2021/09/22 10:25:01;;;;;;;6.72;5.85;;;23.70;53.20;;;;;;6273757;22;20055;-87
2021/09/22 10:27:56;;;;;;;7.40;4.95;;;23.70;53.40;;;;;;6279340;22;20035;-90
2021/09/22 10:31:03;;;;;;;5.77;5.20;;;23.60;53.70;;;;;;6288325;22;20074;-89
2021/09/22 10:34:26;;;;;;;6.22;4.97;;;23.90;54.00;;;;;;6238699;22;20082;-88
2021/09/22 10:37:49;;;;;;;;;;;24.50;51.60;;;;;;6278778;22;20027;-90
2021/09/22 10:40:39;;;;;;;6.25;4.63;;;24.90;49.30;;;;;;6205907;23;19951;-90
2021/09/22 10:43:46;;;;;;;7.70;5.10;;;25.20;50.80;;;;;;6223395;23;20043;-89
2021/09/22 10:46:33;;;;;;;4.82;4.30;;;25.20;49.50;;;;;;6223170;22;20035;-88
2021/09/22 10:49:36;;;;;;;4.38;3.97;;;24.50;49.90;;;;;;6232227;22;20457;-89
2021/09/22 10:52:38;;;;;;;4.43;4.03;;;24.10;51.10;;;;;;6274995;22;20027;-88
2021/09/22 10:55:25;;;;;;;5.15;4.63;;;24.20;51.20;;;;;;6275355;22;20034;-86
2021/09/22 10:58:13;;;;;;;5.40;3.65;;;24.60;49.80;;;;;;6275957;22;20054;-87
2021/09/22 11:01:02;;;;;;;4.05;3.28;;;24.30;51.30;;;;;;6274537;22;20023;-89
2021/09/22 11:03:50;;;;;;;3.83;3.30;;;24.60;50.20;;;;;;6234149;22;20031;-88
2021/09/22 11:06:47;;;;;;;3.50;3.17;;;24.40;49.60;;;;;;6274070;22;20398;-87
2021/09/22 11:09:35;;;;;;;3.55;3.25;;;24.80;49.40;;;;;;6277926;22;20041;-87
2021/09/22 11:12:34;;;;;;;4.72;3.25;;;25.80;49.10;;;;;;6274952;22;20035;-86
2021/09/22 11:15:25;;;;;;;4.20;3.08;;;25.90;46.60;;;;;;6274993;22;20034;-86
2021/09/22 11:18:14;;;;;;;3.40;3.10;;;26.00;47.30;;;;;;6274804;22;20051;-85
2021/09/22 11:21:02;;;;;;;5.25;2.88;;;25.70;45.80;;;;;;6273596;22;20028;-85
2021/09/22 11:23:54;;;;;;;3.97;2.35;;;25.60;48.50;;;;;;6274650;22;20288;-86
2021/09/22 11:26:55;;;;;;;2.70;2.50;;;25.80;47.60;;;;;;6276286;22;20027;-85
2021/09/22 11:29:48;;;;;;;4.55;3.08;;;26.50;47.50;;;;;;6273319;22;20034;-85
2021/09/22 11:32:41;;;;;;;6.78;3.08;;;26.60;45.20;;;;;;6277313;22;20032;-89
2021/09/22 11:35:30;;;;;;;3.33;2.67;;;26.70;44.70;;;;;;6276628;22;20027;-84
2021/09/22 11:38:17;;;;;;;3.20;2.70;;;27.10;44.90;;;;;;6276790;22;20439;-87
2021/09/22 11:41:05;;;;;;;4.68;2.58;;;26.70;45.00;;;;;;6277158;22;20027;-88
2021/09/22 11:44:05;;;;;;;2.35;2.15;;;26.70;46.20;;;;;;6274114;22;20489;-89
2021/09/22 11:46:54;;;;;;;5.32;2.13;;;27.00;43.80;;;;;;6275099;22;20108;-86
2021/09/22 11:49:43;;;;;;;2.45;1.58;;;26.30;45.20;;;;;;6278036;22;20418;-86
2021/09/22 11:52:31;;;;;;;2.40;1.98;;;25.80;44.70;;;;;;6262775;22;20091;-86
2021/09/22 11:55:19;;;;;;;2.60;1.38;;;25.50;45.90;;;;;;6249555;23;20024;-86
2021/09/22 11:58:12;;;;;;;1.30;1.20;;;25.90;45.20;;;;;;6238662;23;20280;-86
2021/09/22 12:01:02;;;;;;;3.47;1.90;;;26.20;44.10;;;;;;6248128;23;20061;-85
2021/09/22 12:03:52;;;;;;;1.90;1.15;;;26.70;44.90;;;;;;6233601;23;20028;-84
2021/09/22 12:06:41;;;;;;;1.95;1.50;;;27.70;44.80;;;;;;6249668;23;20335;-84
2021/09/22 12:09:41;;;;;;;2.53;1.70;;;27.70;42.60;;;;;;6224340;23;20032;-87
2021/09/22 12:12:37;;;;;;;4.55;2.08;;;26.80;44.20;;;;;;6244990;23;20098;-87
2021/09/22 12:15:26;;;;;;;3.13;1.80;;;26.60;45.90;;;;;;6224488;23;20058;-86
2021/09/22 12:18:17;;;;;;;2.67;1.80;;;26.40;43.90;;;;;;6244527;23;20095;-87
2021/09/22 12:21:05;;;;;;;5.90;1.83;;;26.80;43.60;;;;;;6201746;23;20162;-84
2021/09/22 12:23:52;;;;;;;9.93;2.40;;;26.70;44.50;;;;;;6242045;23;20301;-83
2021/09/22 12:26:52;;;;;;;4.78;2.50;;;26.30;45.00;;;;;;6224414;23;20028;-84
2021/09/22 12:29:55;;;;;;;5.28;2.60;;;25.70;47.60;;;;;;6245555;23;20343;-82
2021/09/22 12:33:04;;;;;;;3.95;3.08;;;25.20;47.70;;;;;;6244426;23;20028;-83
2021/09/22 12:35:51;;;;;;;4.18;3.03;;;24.00;49.70;;;;;;6221655;23;20028;-80
2021/09/22 12:39:05;;;;;;;3.85;2.95;;;23.80;51.30;;;;;;6221422;23;20431;-82
2021/09/22 12:42:04;;;;;;;6.25;3.08;;;23.40;53.30;;;;;;6243759;23;20406;-81
2021/09/22 12:44:57;;;;;;;4.65;3.10;;;23.10;52.90;;;;;;6242881;23;20024;-80
2021/09/22 12:47:54;;;;;;;6.10;2.92;;;22.80;53.50;;;;;;6221803;23;20326;-82
2021/09/22 12:50:42;;;;;;;4.15;2.72;;;23.30;54.10;;;;;;6244437;23;20082;-81
2021/09/22 12:53:32;;;;;;;6.93;2.75;;;23.90;52.60;;;;;;6244757;22;20407;-80
2021/09/22 12:56:37;;;;;;;7.45;3.50;;;24.40;52.50;;;;;;6241656;23;20028;-79
2021/09/22 12:59:31;;;;;;;6.40;3.72;;;24.10;50.80;;;;;;6242582;23;20427;-83
2021/09/22 13:02:26;;;;;;;5.72;3.33;;;23.70;52.40;;;;;;6201096;23;20419;-82
2021/09/22 13:05:14;;;;;;;7.75;3.38;;;23.30;52.70;;;;;;6242676;23;20039;-82
2021/09/22 13:08:05;;;;;;;4.93;3.40;;;23.40;52.90;;;;;;6244880;23;20055;-83
2021/09/22 13:11:01;;;;;;;4.10;3.50;;;23.70;52.50;;;;;;6222875;23;20024;-81
2021/09/22 13:14:07;;;;;;;4.38;3.55;;;23.50;52.00;;;;;;6244618;23;20027;-83
2021/09/22 13:16:57;;;;;;;6.90;4.25;;;23.90;51.50;;;;;;6242211;23;20028;-82
2021/09/22 13:19:44;;;;;;;5.78;3.38;;;23.80;52.30;;;;;;6243982;23;20047;-82
2021/09/22 13:22:31;;;;;;;4.45;3.50;;;23.70;52.40;;;;;;6242795;23;20094;-80
2021/09/22 13:25:18;;;;;;;4.85;3.80;;;23.70;50.90;;;;;;6200978;23;20031;-82
2021/09/22 13:28:06;;;;;;;4.18;3.47;;;23.80;52.00;;;;;;6220835;23;20050;-83
2021/09/22 13:30:53;;;;;;;10.70;4.20;;;23.80;51.50;;;;;;6245117;23;20024;-82
2021/09/22 13:33:41;;;;;;;4.55;3.53;;;23.60;51.60;;;;;;6221936;23;20035;-81
2021/09/22 13:36:31;;;;;;;4.75;3.47;;;23.00;52.60;;;;;;6242966;23;20035;-84
2021/09/22 13:39:26;;;;;;;3.53;3.10;;;22.50;54.70;;;;;;6243794;23;20042;-83
2021/09/22 13:42:13;;;;;;;4.43;2.90;;;22.70;53.10;;;;;;6222032;23;20024;-89
2021/09/22 13:45:00;;;;;;;5.07;2.92;;;23.40;53.40;;;;;;6220110;23;20024;-89
2021/09/22 13:47:48;;;;;;;3.63;2.50;;;24.20;51.00;;;;;;6222853;23;20020;-85
2021/09/22 13:50:36;;;;;;;3.90;2.80;;;24.50;50.90;;;;;;6228725;23;20019;-88
2021/09/22 13:53:24;;;;;;;6.13;3.30;;;24.80;49.40;;;;;;6247161;22;20024;-86
2021/09/22 13:56:13;;;;;;;5.82;3.15;;;25.00;48.80;;;;;;6225233;23;20161;-86
2021/09/22 13:59:01;;;;;;;3.53;2.83;;;25.20;49.10;;;;;;6222293;23;20518;-85
2021/09/22 14:01:50;;;;;;;5.20;3.10;;;25.40;48.20;;;;;;6201416;23;20111;-85
2021/09/22 14:04:38;;;;;;;4.10;2.35;;;25.70;47.50;;;;;;6201710;23;20030;-84
2021/09/22 14:07:28;;;;;;;3.95;2.97;;;26.30;45.50;;;;;;6200350;23;20092;-86
2021/09/22 14:10:15;;;;;;;4.00;2.97;;;26.30;45.80;;;;;;6245340;22;20039;-88
2021/09/22 14:13:04;;;;;;;5.03;3.00;;;26.60;45.90;;;;;;6222216;23;20034;-89
2021/09/22 14:15:55;;;;;;;3.78;2.60;;;26.30;46.40;;;;;;6244504;22;20024;-90
2021/09/22 14:18:45;;;;;;;5.93;3.70;;;26.10;46.20;;;;;;6243197;23;20020;-89
2021/09/22 14:21:32;;;;;;;9.45;3.67;;;25.10;49.10;;;;;;6243592;23;20027;-87
2021/09/22 14:24:20;;;;;;;6.47;3.78;;;24.80;48.70;;;;;;6244659;23;20027;-88
2021/09/22 14:27:08;;;;;;;4.90;2.92;;;24.50;49.30;;;;;;6245199;23;20028;-88
2021/09/22 14:29:55;;;;;;;7.07;3.47;;;23.90;51.20;;;;;;6224317;23;20020;-88
2021/09/22 14:32:43;;;;;;;4.68;3.10;;;23.40;52.30;;;;;;6246572;23;20020;-87
2021/09/22 14:35:30;;;;;;;4.97;2.85;;;23.00;53.90;;;;;;6244891;23;20043;-87
2021/09/22 14:38:17;;;;;;;10.35;3.53;;;22.80;54.20;;;;;;6222864;23;20024;-85
2021/09/22 14:41:06;;;;;;;4.35;3.40;;;22.50;54.90;;;;;;6245299;23;20028;-86
2021/09/22 14:43:54;;;;;;;5.45;3.25;;;22.40;55.00;;;;;;6246111;23;20047;-87
2021/09/22 14:46:44;;;;;;;3.97;3.10;;;22.30;55.30;;;;;;6243883;23;20020;-87
2021/09/22 14:49:31;;;;;;;4.80;3.35;;;22.60;56.10;;;;;;6243075;23;20403;-89
2021/09/22 14:52:18;;;;;;;6.50;3.10;;;22.90;55.20;;;;;;6234551;22;20322;-87
2021/09/22 14:55:11;;;;;;;4.63;3.00;;;22.90;54.30;;;;;;6275163;22;20444;-86
2021/09/22 14:58:00;;;;;;;15.30;2.88;;;22.90;54.60;;;;;;6275825;22;20027;-88
2021/09/22 15:00:47;;;;;;;4.15;3.10;;;22.80;54.70;;;;;;6274616;22;20028;-88
2021/09/22 15:03:37;;;;;;;6.43;2.90;;;22.70;55.60;;;;;;6277360;22;20130;-87
2021/09/22 15:06:25;;;;;;;4.55;3.22;;;22.60;56.20;;;;;;6273623;22;20032;-88
2021/09/22 15:09:13;;;;;;;4.15;2.70;;;22.10;56.20;;;;;;6275792;22;20119;-87
2021/09/22 15:12:05;;;;;;;7.13;3.10;;;21.90;57.70;;;;;;6275436;22;20031;-87
2021/09/22 15:15:12;;;;;;;4.25;2.83;;;22.10;57.70;;;;;;6274265;22;20326;-88